createdAt,value
2023-01-03T00:00:14.731Z,79.40
2023-01-03T00:05:16.824Z,78.90
2023-01-03T00:10:19.007Z,78.40
2023-01-03T00:15:21.052Z,79.20
2023-01-03T00:20:23.216Z,79.20
2023-01-03T00:25:26.825Z,79.60
2023-01-03T00:30:29.212Z,80.10
2023-01-03T00:35:31.625Z,80.50
2023-01-03T00:40:33.818Z,80.70
2023-01-03T00:45:38.847Z,80.60
2023-01-03T00:50:40.861Z,81.70
2023-01-03T00:55:42.972Z,82.40
2023-01-03T01:00:44.942Z,82.60
2023-01-03T01:05:46.921Z,82.60
2023-01-03T01:11:02.067Z,83.20
2023-01-03T01:16:18.166Z,84.40
2023-01-03T01:21:28.148Z,85.00
2023-01-03T01:26:30.668Z,85.30
2023-01-03T01:31:33.369Z,84.90
2023-01-03T01:36:38.053Z,85.80
2023-01-03T01:42:00.462Z,83.90
2023-01-03T01:47:03.211Z,82.40
2023-01-03T01:52:06.353Z,83.60
2023-01-03T01:57:14.772Z,84.80
2023-01-03T02:02:24.231Z,86.40
2023-01-03T02:07:26.701Z,88.20
2023-01-03T02:13:13.529Z,82.80
2023-01-03T02:34:49.806Z,85.90
2023-01-03T02:40:00.909Z,86.00
2023-01-03T02:45:15.820Z,86.40
2023-01-03T02:50:22.402Z,87.30
2023-01-03T05:56:07.638Z,88.40
2023-01-03T06:11:18.500Z,86.90
2023-01-03T06:16:40.239Z,86.00
2023-01-03T06:21:42.324Z,84.60
2023-01-03T06:26:44.338Z,84.30
2023-01-03T10:22:38.157Z,83.90
2023-01-03T10:28:06.777Z,81.10
2023-01-03T10:33:31.042Z,80.30
2023-01-03T10:38:38.417Z,82.10
2023-01-03T10:43:57.542Z,87.10
2023-01-03T10:49:27.787Z,82.00
2023-01-03T10:54:53.395Z,83.40
2023-01-03T10:59:55.436Z,83.20
2023-01-03T11:05:16.154Z,82.30
2023-01-03T11:10:19.636Z,81.70
2023-01-03T11:15:40.045Z,78.80
2023-01-03T11:21:17.836Z,86.10
2023-01-03T11:42:55.113Z,80.50
2023-01-03T13:13:19.430Z,49.30
2023-01-03T13:18:21.474Z,54.70
2023-01-03T13:23:56.323Z,56.70
2023-01-03T13:29:35.334Z,56.80
2023-01-03T13:34:37.525Z,58.40
2023-01-03T13:39:47.974Z,59.20
2023-01-03T13:44:51.254Z,57.40
2023-01-03T13:49:54.204Z,57.50
2023-01-03T13:54:59.119Z,55.80
2023-01-03T14:00:14.072Z,55.10
2023-01-03T14:05:38.060Z,56.20
2023-01-03T14:11:16.583Z,56.50
2023-01-03T14:47:55.290Z,55.40
2023-01-03T14:53:01.649Z,57.40
2023-01-03T14:58:31.073Z,57.90
